Airfield :
LOGIN :

Register | Disclaimer

   EN    FR    IT 

 










Legend :    VFR   Marginal VFR   IFR   Intensive IFR   Very Intensive IFR
Visi :
Ceiling :
>= 8 km
>= 3000ft
5 to 8 km
1000 to 3000 ft
1500m to 5 km
500 to 1000 ft
800 to 1500m
200 to 500 ft
< 800m
< 200 ft
Symbols :   Thunderstorms  Fog  Heavy snow  Heavy precipitations  Wind > 20 kt
SIGMETs :     Misc.  Thunderstorms  Icing  Turbulence  Mountain Waves  Volcanic Ashes






- Airport Elevation : 2776 ft
- IATA code : VLL


LEVD - Valladolid

CURRENT METAR :
  • 221500Z 25027G37KT 9999 SCT018TCU 11/09 Q0988 RERA

EXPIRED METARs :
  • 221442Z 25026KT 9999 SCT015TCU BKN030 11/09 Q0988 RERA
  • 221430Z 27017KT 5000 RA BKN010 BKN022 11/10 Q0988
  • 221411Z 23019KT 200V260 8000 RA BKN015 BKN022 11/10 Q0988
  • 221400Z 23023KT 9999 BKN018 BKN023 12/10 Q0988
  • 221330Z 23022KT 9000 BKN026 BKN035 12/10 Q0988
  • 221300Z 23023G36KT 9999 BKN020 BKN037 12/10 Q0989
  • 221230Z 21021G33KT 8000 BKN010 BKN019 11/10 Q0989

TAF TAF LEVD
Valid from the 22 at 12:00 until the 23 at 12:00 UTC


221100Z 2212/2312 20012KT 9999 BKN020 OVC035 TX11/2214Z TN02/2306Z
PROB40
TEMPO 2212/2224 2000 RADZ BR BKN012
PROB40
TEMPO 2212/2312 20015G32KT
PROB30
TEMPO 2212/2218 24025G43KT



MET'MAP, your aeronautical weather chart ! - Copyright ORBIFLY December 2007 - Disclaimer

ORBIFLY MET'MAP TEAM :

Programming & Development : Alexandra Zaïnal
Concept & Development : Baudouin d'Aumeries
Co-Development & Prog : Marc-Olivier Méhu
Technical & hardware support : Manuel Goepfert

Contact : metmap@orbifly.com




SOURCES & CREDITS :

   NOAA